Time;durP1;ratioP1;P1;durP2;ratioP2;P2;SDS_P1;SDS_P2;PMS_P1;PMS_P2;Temp;Humidity;BMP_temperature;BMP_pressure;BME280_temperature;BME280_humidity;BME280_pressure;Samples;Min_cycle;Max_cycle;Signal;HPM_P1;HPM_P2
2023/06/13 00:04:51;;;;;;;1.20;1.10;;;;;;;;;;10313833;28;20572;-59
2023/06/13 00:09:50;;;;;;;1.85;1.10;;;;;;;;;;10314409;28;20076;-60
2023/06/13 00:14:50;;;;;;;2.33;1.30;;;;;;;;;;10313893;28;20071;-60
2023/06/13 00:19:48;;;;;;;3.70;1.33;;;;;;;;;;10314242;28;20084;-60
2023/06/13 00:24:48;;;;;;;2.03;1.38;;;;;;;;;;10311927;28;20095;-60
2023/06/13 00:29:46;;;;;;;2.67;1.33;;;;;;;;;;10313181;28;20080;-60
2023/06/13 00:34:46;;;;;;;7.70;1.75;;;;;;;;;;10310563;28;20471;-59
2023/06/13 00:39:44;;;;;;;1.45;1.33;;;;;;;;;;10320541;28;20110;-59
2023/06/13 00:44:44;;;;;;;1.88;1.45;;;;;;;;;;10321595;28;20068;-59
2023/06/13 00:49:43;;;;;;;3.25;1.50;;;;;;;;;;10333177;28;20139;-60
2023/06/13 00:54:41;;;;;;;2.28;1.98;;;;;;;;;;10318719;28;20502;-59
2023/06/13 00:59:39;;;;;;;1.80;1.70;;;;;;;;;;10319143;28;20048;-59
2023/06/13 01:04:39;;;;;;;1.48;1.38;;;;;;;;;;10319816;28;20087;-60
2023/06/13 01:09:37;;;;;;;2.15;1.90;;;;;;;;;;10318633;28;20102;-60
2023/06/13 01:14:40;;;;;;;2.53;1.65;;;;;;;;;;10320368;28;20063;-60
2023/06/13 01:19:41;;;;;;;5.38;1.63;;;;;;;;;;10318160;28;20051;-60
2023/06/13 01:24:45;;;;;;;1.73;1.63;;;;;;;;;;10318529;28;20455;-59
2023/06/13 01:29:45;;;;;;;3.67;1.40;;;;;;;;;;10317008;28;20083;-59
2023/06/13 01:34:46;;;;;;;2.38;1.70;;;;;;;;;;10316395;28;20048;-60
2023/06/13 01:39:44;;;;;;;3.72;1.38;;;;;;;;;;10319130;28;20071;-60
2023/06/13 01:44:43;;;;;;;1.75;1.35;;;;;;;;;;10319353;28;20166;-59
2023/06/13 01:49:47;;;;;;;3.70;1.80;;;;;;;;;;10316962;28;20072;-59
2023/06/13 01:54:45;;;;;;;;;;;;;;;;;;10334305;28;20067;-60
2023/06/13 01:59:44;;;;;;;2.00;1.73;;;;;;;;;;10317507;28;19921;-59
2023/06/13 02:04:44;;;;;;;2.65;1.60;;;;;;;;;;10317352;28;20525;-59
2023/06/13 02:09:42;;;;;;;2.03;1.80;;;;;;;;;;10312039;28;20064;-60
2023/06/13 02:14:42;;;;;;;3.97;1.58;;;;;;;;;;10311602;28;20060;-59
2023/06/13 02:19:40;;;;;;;1.85;1.52;;;;;;;;;;10311821;28;20556;-60
2023/06/13 02:24:41;;;;;;;2.03;1.80;;;;;;;;;;10307823;28;20463;-58
2023/06/13 02:29:39;;;;;;;2.80;2.08;;;;;;;;;;10316265;28;20029;-59
2023/06/13 02:34:37;;;;;;;5.15;1.92;;;;;;;;;;10315918;28;20064;-59
2023/06/13 02:39:36;;;;;;;2.65;1.75;;;;;;;;;;10311001;28;20469;-59
2023/06/13 02:44:38;;;;;;;4.40;2.30;;;;;;;;;;10312742;28;20083;-59
2023/06/13 02:49:36;;;;;;;5.00;1.80;;;;;;;;;;10316132;28;20106;-60
2023/06/13 02:54:34;;;;;;;2.15;1.80;;;;;;;;;;10313865;28;20044;-60
2023/06/13 02:59:33;;;;;;;3.63;1.77;;;;;;;;;;10314803;28;20293;-59
2023/06/13 03:04:32;;;;;;;2.35;2.15;;;;;;;;;;10313251;28;20090;-59
2023/06/13 03:09:31;;;;;;;3.53;2.08;;;;;;;;;;10312017;28;20083;-59
2023/06/13 03:14:30;;;;;;;1.80;1.70;;;;;;;;;;10314025;28;20150;-60
2023/06/13 03:19:28;;;;;;;5.53;1.85;;;;;;;;;;10312699;28;20071;-60
2023/06/13 03:24:32;;;;;;;4.35;1.92;;;;;;;;;;10312901;28;20474;-60
2023/06/13 03:29:31;;;;;;;2.08;1.83;;;;;;;;;;10314164;28;20068;-60
2023/06/13 03:34:31;;;;;;;3.38;2.00;;;;;;;;;;10311049;28;20068;-60
2023/06/13 03:39:31;;;;;;;2.65;1.95;;;;;;;;;;10311355;28;20072;-60
2023/06/13 03:44:30;;;;;;;2.20;2.00;;;;;;;;;;10311031;28;20086;-60
2023/06/13 03:49:28;;;;;;;4.60;2.30;;;;;;;;;;10313425;28;20068;-60
2023/06/13 03:54:26;;;;;;;3.63;2.28;;;;;;;;;;10312841;28;20525;-60
2023/06/13 03:59:26;;;;;;;2.00;1.83;;;;;;;;;;10314277;28;20068;-60
2023/06/13 04:04:26;;;;;;;4.90;2.10;;;;;;;;;;10312127;28;20083;-60
2023/06/13 04:09:25;;;;;;;2.65;1.90;;;;;;;;;;10302498;28;20083;-60
2023/06/13 04:14:25;;;;;;;2.47;2.10;;;;;;;;;;10309187;28;20075;-60
2023/06/13 04:19:24;;;;;;;2.25;1.90;;;;;;;;;;10309852;28;20461;-60
2023/06/13 04:24:23;;;;;;;2.72;2.50;;;;;;;;;;10313097;28;20076;-60
2023/06/13 04:29:25;;;;;;;4.93;2.50;;;;;;;;;;10311932;28;20060;-59
2023/06/13 04:34:24;;;;;;;2.88;2.45;;;;;;;;;;10308649;28;20075;-60
2023/06/13 04:39:24;;;;;;;3.05;2.60;;;;;;;;;;10311125;28;20064;-59
2023/06/13 04:44:25;;;;;;;7.18;2.58;;;;;;;;;;10311303;28;20072;-61
2023/06/13 04:49:25;;;;;;;4.93;2.65;;;;;;;;;;10310168;28;20068;-61
2023/06/13 04:54:23;;;;;;;4.60;2.88;;;;;;;;;;10305946;28;20068;-60
2023/06/13 04:59:21;;;;;;;4.68;2.50;;;;;;;;;;10311731;28;20060;-60
2023/06/13 05:04:19;;;;;;;5.80;3.25;;;;;;;;;;10306630;28;20079;-60
2023/06/13 05:09:19;;;;;;;5.55;3.35;;;;;;;;;;10305964;28;20521;-59
2023/06/13 05:14:17;;;;;;;7.40;4.22;;;;;;;;;;10304250;28;20079;-60
2023/06/13 05:19:17;;;;;;;6.22;4.32;;;;;;;;;;10304778;28;20525;-60
2023/06/13 05:24:17;;;;;;;6.07;4.28;;;;;;;;;;10310162;28;20530;-60
2023/06/13 05:29:16;;;;;;;7.80;3.60;;;;;;;;;;10318070;28;20102;-61
2023/06/13 05:34:14;;;;;;;4.43;4.03;;;;;;;;;;10319379;28;20060;-61
2023/06/13 05:39:13;;;;;;;4.57;4.05;;;;;;;;;;10319040;28;20083;-61
2023/06/13 05:44:13;;;;;;;4.95;4.32;;;;;;;;;;10319272;28;20079;-61
2023/06/13 05:49:13;;;;;;;4.68;4.28;;;;;;;;;;10315992;28;20068;-61
2023/06/13 05:54:11;;;;;;;6.15;4.47;;;;;;;;;;10317079;28;20060;-61
2023/06/13 05:59:09;;;;;;;5.68;5.00;;;;;;;;;;10318567;28;20084;-61
2023/06/13 06:04:08;;;;;;;10.32;4.85;;;;;;;;;;10317306;28;20605;-61
2023/06/13 06:09:08;;;;;;;7.53;5.18;;;;;;;;;;10318080;28;20555;-60
2023/06/13 06:14:06;;;;;;;5.25;4.75;;;;;;;;;;10318268;28;20471;-61
2023/06/13 06:19:04;;;;;;;5.20;4.70;;;;;;;;;;10316040;28;20556;-60
2023/06/13 06:24:02;;;;;;;5.57;4.50;;;;;;;;;;10317742;28;20079;-60
2023/06/13 06:29:03;;;;;;;6.43;4.90;;;;;;;;;;10317331;28;20068;-61
2023/06/13 06:34:01;;;;;;;8.38;4.95;;;;;;;;;;10313222;28;20067;-62
2023/06/13 06:38:59;;;;;;;7.97;5.03;;;;;;;;;;10317231;28;20068;-58
2023/06/13 06:43:57;;;;;;;5.82;5.32;;;;;;;;;;10316773;28;20083;-59
2023/06/13 06:48:58;;;;;;;5.38;4.55;;;;;;;;;;10309428;28;20076;-60
2023/06/13 06:53:56;;;;;;;7.13;5.45;;;;;;;;;;10315844;28;20075;-60
2023/06/13 06:58:54;;;;;;;7.72;5.35;;;;;;;;;;10315851;28;20502;-61
2023/06/13 07:03:53;;;;;;;9.75;5.80;;;;;;;;;;10315505;28;20079;-60
2023/06/13 07:08:52;;;;;;;6.40;5.80;;;;;;;;;;10315583;28;20075;-61
2023/06/13 07:13:51;;;;;;;7.18;5.93;;;;;;;;;;10314534;28;20060;-61
2023/06/13 07:18:51;;;;;;;7.13;5.45;;;;;;;;;;10315592;28;20088;-60
2023/06/13 07:23:49;;;;;;;16.52;7.13;;;;;;;;;;10313570;28;20083;-60
2023/06/13 07:29:04;;;;;;;16.20;5.63;;;;;;;;;;10312935;28;20040;-60
2023/06/13 07:34:03;;;;;;;9.10;5.47;;;;;;;;;;10314383;28;20099;-60
2023/06/13 07:39:09;;;;;;;6.57;4.45;;;;;;;;;;10314615;28;20079;-60
2023/06/13 07:44:09;;;;;;;5.72;5.22;;;;;;;;;;10311069;28;20528;-59
2023/06/13 07:49:07;;;;;;;8.80;5.43;;;;;;;;;;10313599;28;20106;-59
2023/06/13 07:54:05;;;;;;;11.52;6.38;;;;;;;;;;10313786;28;20087;-60
2023/06/13 07:59:04;;;;;;;5.97;5.38;;;;;;;;;;10314411;28;20048;-60
2023/06/13 08:04:04;;;;;;;6.32;5.53;;;;;;;;;;10311856;28;20076;-61
2023/06/13 08:09:03;;;;;;;8.05;5.07;;;;;;;;;;10312329;28;20044;-59
2023/06/13 08:14:02;;;;;;;5.57;5.07;;;;;;;;;;10314330;28;20486;-60
2023/06/13 08:19:00;;;;;;;6.30;4.47;;;;;;;;;;10312078;28;20510;-61
2023/06/13 08:24:00;;;;;;;8.02;4.78;;;;;;;;;;10313831;28;20080;-61
2023/06/13 08:28:59;;;;;;;4.70;4.30;;;;;;;;;;10312414;28;20072;-61
2023/06/13 08:33:58;;;;;;;4.40;4.00;;;;;;;;;;10312680;28;20593;-60
2023/06/13 08:39:08;;;;;;;6.07;4.35;;;;;;;;;;10313002;28;20079;-60
2023/06/13 08:44:06;;;;;;;7.07;4.35;;;;;;;;;;10313925;28;20509;-60
2023/06/13 08:49:05;;;;;;;4.95;4.18;;;;;;;;;;10310315;28;20533;-59
2023/06/13 08:54:04;;;;;;;4.63;4.22;;;;;;;;;;10308301;28;20064;-60
2023/06/13 08:59:07;;;;;;;5.40;3.60;;;;;;;;;;10315160;28;20496;-61
2023/06/13 09:04:05;;;;;;;4.40;3.95;;;;;;;;;;10317953;28;20541;-61
2023/06/13 09:09:06;;;;;;;3.70;3.40;;;;;;;;;;10318583;28;20728;-61
2023/06/13 09:14:06;;;;;;;7.90;4.68;;;;;;;;;;10314800;28;20649;-61
2023/06/13 09:19:04;;;;;;;6.68;5.82;;;;;;;;;;10318250;28;20873;-60
2023/06/13 09:24:03;;;;;;;6.47;3.35;;;;;;;;;;10316898;28;20079;-60
2023/06/13 09:29:01;;;;;;;6.18;3.53;;;;;;;;;;10319875;28;20473;-60
2023/06/13 09:34:14;;;;;;;6.75;3.42;;;;;;;;;;10315400;28;20067;-59
2023/06/13 09:39:12;;;;;;;5.57;3.30;;;;;;;;;;10318692;28;20556;-59
2023/06/13 09:44:11;;;;;;;4.43;2.97;;;;;;;;;;10318100;28;20076;-58
2023/06/13 09:49:10;;;;;;;11.82;3.17;;;;;;;;;;10317097;28;20072;-59
2023/06/13 09:54:09;;;;;;;9.32;3.30;;;;;;;;;;10318418;28;20064;-60
2023/06/13 09:59:07;;;;;;;3.22;2.55;;;;;;;;;;10317817;28;20092;-59
2023/06/13 10:04:05;;;;;;;7.18;3.30;;;;;;;;;;10317602;28;20444;-60
2023/06/13 10:09:05;;;;;;;4.82;2.20;;;;;;;;;;10317785;28;20083;-60
2023/06/13 10:14:06;;;;;;;4.13;3.10;;;;;;;;;;10317099;28;20073;-60
2023/06/13 10:19:05;;;;;;;3.20;2.65;;;;;;;;;;10317949;28;20071;-60
2023/06/13 10:24:05;;;;;;;3.80;2.38;;;;;;;;;;10316276;28;20071;-60
2023/06/13 10:29:17;;;;;;;2.92;2.60;;;;;;;;;;10315665;28;20063;-60
2023/06/13 10:34:26;;;;;;;8.73;5.05;;;;;;;;;;10317267;28;20130;-61
2023/06/13 10:39:46;;;;;;;6.75;3.42;;;;;;;;;;10316034;28;20528;-61
2023/06/13 10:44:49;;;;;;;10.25;7.03;;;;;;;;;;10312943;28;20084;-60
2023/06/13 10:49:48;;;;;;;7.35;4.85;;;;;;;;;;10315619;28;20076;-60
2023/06/13 10:54:53;;;;;;;12.25;5.45;;;;;;;;;;10316655;28;20076;-61
2023/06/13 10:59:51;;;;;;;4.75;2.58;;;;;;;;;;10314088;28;20469;-60
2023/06/13 11:04:51;;;;;;;4.63;2.55;;;;;;;;;;10315064;28;20080;-60
2023/06/13 11:10:01;;;;;;;10.75;3.10;;;;;;;;;;10313134;28;20079;-60
2023/06/13 11:15:00;;;;;;;8.35;4.30;;;;;;;;;;10315125;28;20075;-60
2023/06/13 11:19:58;;;;;;;4.82;3.95;;;;;;;;;;10314539;28;20079;-60
2023/06/13 11:25:00;;;;;;;4.82;2.55;;;;;;;;;;10313279;28;20498;-60
2023/06/13 11:29:58;;;;;;;8.73;3.60;;;;;;;;;;10314103;28;20064;-61
2023/06/13 11:34:59;;;;;;;9.57;3.25;;;;;;;;;;10313426;28;20076;-61
2023/06/13 11:39:58;;;;;;;3.45;3.15;;;;;;;;;;10314046;28;20075;-61
2023/06/13 11:44:59;;;;;;;4.00;3.10;;;;;;;;;;10308386;28;20067;-60
2023/06/13 11:49:58;;;;;;;12.07;2.38;;;;;;;;;;10314305;28;20521;-61
2023/06/13 11:54:59;;;;;;;5.30;4.72;;;;;;;;;;10309441;28;20065;-61
2023/06/13 11:59:58;;;;;;;5.25;3.58;;;;;;;;;;10312441;28;20071;-60
2023/06/13 12:04:57;;;;;;;6.03;2.90;;;;;;;;;;10311690;28;20080;-60
2023/06/13 12:09:56;;;;;;;4.53;3.50;;;;;;;;;;10312470;28;20489;-62
2023/06/13 12:14:56;;;;;;;5.35;4.07;;;;;;;;;;10313059;28;20071;-61
2023/06/13 12:20:06;;;;;;;6.65;5.70;;;;;;;;;;10311963;28;20084;-62
2023/06/13 12:25:05;;;;;;;3.83;2.95;;;;;;;;;;10313107;28;20075;-61
2023/06/13 12:30:13;;;;;;;7.30;3.85;;;;;;;;;;10312650;28;20072;-61
2023/06/13 12:35:12;;;;;;;6.63;3.33;;;;;;;;;;10318825;28;20094;-61
2023/06/13 12:40:12;;;;;;;3.85;3.42;;;;;;;;;;10320242;28;20072;-61
2023/06/13 12:45:12;;;;;;;4.45;3.83;;;;;;;;;;10318538;28;20076;-61
2023/06/13 12:50:12;;;;;;;7.18;6.05;;;;;;;;;;10319744;28;20075;-60
2023/06/13 12:55:11;;;;;;;9.35;4.30;;;;;;;;;;10319664;28;20068;-61
2023/06/13 13:00:11;;;;;;;6.50;3.20;;;;;;;;;;10321357;28;20517;-61
2023/06/13 13:05:11;;;;;;;5.72;3.35;;;;;;;;;;10320575;28;20092;-61
2023/06/13 13:10:09;;;;;;;7.10;3.28;;;;;;;;;;10320207;28;20051;-61
2023/06/13 13:15:08;;;;;;;11.93;4.10;;;;;;;;;;10320608;28;20486;-61
2023/06/13 13:20:06;;;;;;;3.83;2.30;;;;;;;;;;10319221;28;20072;-61
2023/06/13 13:25:07;;;;;;;4.15;2.72;;;;;;;;;;10319678;28;20099;-61
2023/06/13 13:30:06;;;;;;;5.20;3.03;;;;;;;;;;10319710;28;20078;-61
2023/06/13 13:35:06;;;;;;;8.70;3.55;;;;;;;;;;10318706;28;20064;-61
2023/06/13 13:40:07;;;;;;;7.45;4.30;;;;;;;;;;10319863;28;20694;-61
2023/06/13 13:45:06;;;;;;;9.88;4.03;;;;;;;;;;10318532;28;20092;-62
2023/06/13 13:50:04;;;;;;;4.20;2.97;;;;;;;;;;10318974;28;20103;-61
2023/06/13 13:55:03;;;;;;;6.43;3.95;;;;;;;;;;10318283;28;20074;-61
2023/06/13 14:00:04;;;;;;;5.15;3.30;;;;;;;;;;10318865;28;20083;-61
2023/06/13 14:05:02;;;;;;;3.70;3.40;;;;;;;;;;10317862;28;20520;-59
2023/06/13 14:10:01;;;;;;;4.93;4.05;;;;;;;;;;10317326;28;20068;-59
2023/06/13 14:14:59;;;;;;;11.77;3.95;;;;;;;;;;10314525;28;20076;-60
2023/06/13 14:19:59;;;;;;;9.95;3.97;;;;;;;;;;10314393;28;20072;-60
2023/06/13 14:24:57;;;;;;;4.82;3.88;;;;;;;;;;10300827;28;20064;-61
2023/06/13 14:29:55;;;;;;;6.60;3.10;;;;;;;;;;10302007;28;20075;-60
2023/06/13 14:35:10;;;;;;;5.28;2.67;;;;;;;;;;10304489;28;20064;-62
2023/06/13 14:40:09;;;;;;;3.22;2.90;;;;;;;;;;10307169;28;20073;-60
2023/06/13 14:45:08;;;;;;;5.20;3.10;;;;;;;;;;10311054;28;20064;-62
2023/06/13 14:50:08;;;;;;;6.55;2.70;;;;;;;;;;10315609;28;20072;-61
2023/06/13 14:55:07;;;;;;;3.15;2.83;;;;;;;;;;10315496;28;20068;-62
2023/06/13 15:00:06;;;;;;;6.57;2.92;;;;;;;;;;10304993;28;20076;-61
2023/06/13 15:05:05;;;;;;;6.75;2.85;;;;;;;;;;10312673;28;20092;-61
2023/06/13 15:10:04;;;;;;;4.32;2.90;;;;;;;;;;10316387;28;20083;-61
2023/06/13 15:15:03;;;;;;;5.40;2.72;;;;;;;;;;10308065;28;20072;-61
2023/06/13 15:20:02;;;;;;;5.47;3.08;;;;;;;;;;10312107;28;20083;-61
2023/06/13 15:25:01;;;;;;;7.43;3.80;;;;;;;;;;10312821;28;20071;-61
2023/06/13 15:29:59;;;;;;;6.90;3.50;;;;;;;;;;10314807;28;20076;-61
2023/06/13 15:34:59;;;;;;;6.22;2.97;;;;;;;;;;10310479;28;20076;-60
2023/06/13 15:39:58;;;;;;;5.93;3.13;;;;;;;;;;10314815;28;20474;-59
2023/06/13 15:44:56;;;;;;;3.47;3.13;;;;;;;;;;10312932;28;20075;-61
2023/06/13 15:49:54;;;;;;;6.32;3.38;;;;;;;;;;10304747;28;20068;-59
2023/06/13 15:54:54;;;;;;;5.45;3.25;;;;;;;;;;10302985;28;20079;-60
2023/06/13 15:59:53;;;;;;;4.65;2.95;;;;;;;;;;10302142;28;20075;-60
2023/06/13 16:04:51;;;;;;;4.53;2.78;;;;;;;;;;10313390;28;20084;-60
2023/06/13 16:09:50;;;;;;;4.57;3.58;;;;;;;;;;10312197;28;20076;-60
2023/06/13 16:14:50;;;;;;;3.03;2.42;;;;;;;;;;10313731;28;20064;-61
2023/06/13 16:19:49;;;;;;;3.50;2.85;;;;;;;;;;10314128;28;20083;-60
2023/06/13 16:24:48;;;;;;;6.38;3.30;;;;;;;;;;10305390;28;20501;-60
2023/06/13 16:29:46;;;;;;;4.15;3.67;;;;;;;;;;10295217;28;20462;-61
2023/06/13 16:34:46;;;;;;;4.07;3.05;;;;;;;;;;10306595;28;20089;-61
2023/06/13 16:39:45;;;;;;;3.38;2.65;;;;;;;;;;10312702;28;20064;-60
2023/06/13 16:44:44;;;;;;;9.27;3.42;;;;;;;;;;10312786;28;20061;-60
2023/06/13 16:49:42;;;;;;;7.50;4.88;;;;;;;;;;10312960;28;20083;-61
2023/06/13 16:54:41;;;;;;;5.63;5.07;;;;;;;;;;10313290;28;20067;-60
2023/06/13 16:59:40;;;;;;;5.97;3.75;;;;;;;;;;10313244;28;20073;-61
2023/06/13 17:04:38;;;;;;;5.35;3.70;;;;;;;;;;10312427;28;20072;-61
2023/06/13 17:09:36;;;;;;;7.93;4.93;;;;;;;;;;10312985;28;20099;-60
2023/06/13 17:14:36;;;;;;;6.35;4.07;;;;;;;;;;10311584;28;20079;-61
2023/06/13 17:19:34;;;;;;;4.78;3.22;;;;;;;;;;10316196;28;20060;-60
2023/06/13 17:24:32;;;;;;;6.03;3.63;;;;;;;;;;10320237;28;20068;-61
2023/06/13 17:29:31;;;;;;;4.70;2.92;;;;;;;;;;10319924;28;20079;-61
2023/06/13 17:34:30;;;;;;;5.13;3.20;;;;;;;;;;10318748;28;20506;-60
2023/06/13 17:39:29;;;;;;;6.22;2.60;;;;;;;;;;10316293;28;20071;-59
2023/06/13 17:44:27;;;;;;;5.80;2.63;;;;;;;;;;10315101;28;20064;-59
2023/06/13 17:49:25;;;;;;;2.30;2.10;;;;;;;;;;10311441;28;20090;-58
2023/06/13 17:54:25;;;;;;;2.90;2.58;;;;;;;;;;10316587;28;20094;-61
2023/06/13 17:59:23;;;;;;;5.47;2.60;;;;;;;;;;10317249;28;20067;-59
2023/06/13 18:04:22;;;;;;;5.65;2.55;;;;;;;;;;10315960;28;20080;-58
2023/06/13 18:09:22;;;;;;;6.55;2.50;;;;;;;;;;10311636;28;20076;-59
2023/06/13 18:14:21;;;;;;;6.53;3.22;;;;;;;;;;10315084;28;20410;-60
2023/06/13 18:19:20;;;;;;;2.70;2.15;;;;;;;;;;10315762;28;20091;-59
2023/06/13 18:24:19;;;;;;;3.97;1.80;;;;;;;;;;10313637;28;20060;-59
2023/06/13 18:29:17;;;;;;;4.82;2.10;;;;;;;;;;10315333;28;20072;-60
2023/06/13 18:34:17;;;;;;;5.03;2.20;;;;;;;;;;10315552;28;20040;-60
2023/06/13 18:39:15;;;;;;;4.88;2.20;;;;;;;;;;10315418;28;20068;-63
2023/06/13 18:44:13;;;;;;;4.03;2.38;;;;;;;;;;10314849;28;20069;-60
2023/06/13 18:49:13;;;;;;;2.65;1.92;;;;;;;;;;10316646;28;20506;-60
2023/06/13 18:54:13;;;;;;;2.13;1.92;;;;;;;;;;10313414;28;20084;-61
2023/06/13 18:59:11;;;;;;;2.30;2.08;;;;;;;;;;10311939;28;20075;-60
2023/06/13 19:04:09;;;;;;;3.63;2.08;;;;;;;;;;10314041;28;20084;-60
2023/06/13 19:09:09;;;;;;;2.78;2.40;;;;;;;;;;10315268;28;20071;-60
2023/06/13 19:14:09;;;;;;;2.10;1.90;;;;;;;;;;10315571;28;20060;-60
2023/06/13 19:19:08;;;;;;;3.80;2.03;;;;;;;;;;10314122;28;20091;-60
2023/06/13 19:24:07;;;;;;;6.88;2.10;;;;;;;;;;10315103;28;20076;-60
2023/06/13 19:29:05;;;;;;;2.47;2.17;;;;;;;;;;10314898;28;20072;-61
2023/06/13 19:34:05;;;;;;;5.22;2.00;;;;;;;;;;10315255;28;20080;-61
2023/06/13 19:39:03;;;;;;;3.03;1.98;;;;;;;;;;10315040;28;20060;-59
2023/06/13 19:44:01;;;;;;;4.20;2.13;;;;;;;;;;10303732;28;20502;-60
2023/06/13 19:49:00;;;;;;;3.80;2.35;;;;;;;;;;10313230;28;20072;-60
2023/06/13 19:54:00;;;;;;;5.03;2.42;;;;;;;;;;10312993;28;20087;-60
2023/06/13 19:59:00;;;;;;;4.82;1.98;;;;;;;;;;10312631;28;20079;-59
2023/06/13 20:04:00;;;;;;;3.40;2.20;;;;;;;;;;10313724;28;20079;-60
2023/06/13 20:09:00;;;;;;;3.33;1.95;;;;;;;;;;10314040;28;20094;-61
2023/06/13 20:13:58;;;;;;;7.05;2.40;;;;;;;;;;10314094;28;20076;-60
2023/06/13 20:18:56;;;;;;;3.40;2.60;;;;;;;;;;10309749;28;20608;-59
2023/06/13 20:23:54;;;;;;;6.03;2.33;;;;;;;;;;10310515;28;20068;-59
2023/06/13 20:28:57;;;;;;;3.15;2.47;;;;;;;;;;10313464;28;20517;-59
2023/06/13 20:33:55;;;;;;;2.90;2.50;;;;;;;;;;10313755;28;20064;-60
2023/06/13 20:38:54;;;;;;;2.50;2.30;;;;;;;;;;10313681;28;20068;-59
2023/06/13 20:43:53;;;;;;;5.80;2.90;;;;;;;;;;10313658;28;20080;-59
2023/06/13 20:48:52;;;;;;;6.22;3.22;;;;;;;;;;10306574;28;20068;-59
2023/06/13 20:53:50;;;;;;;4.90;2.47;;;;;;;;;;10311101;28;20087;-59
2023/06/13 20:58:51;;;;;;;11.35;2.80;;;;;;;;;;10319336;28;20497;-59
2023/06/13 21:03:50;;;;;;;3.40;2.50;;;;;;;;;;10320960;28;20079;-60
2023/06/13 21:08:51;;;;;;;3.30;2.22;;;;;;;;;;10320130;28;20473;-59
2023/06/13 21:13:50;;;;;;;9.45;2.90;;;;;;;;;;10317721;28;20063;-60
2023/06/13 21:18:49;;;;;;;7.72;3.22;;;;;;;;;;10319946;28;20075;-60
2023/06/13 21:23:48;;;;;;;4.28;2.80;;;;;;;;;;10320263;28;20079;-60
2023/06/13 21:28:47;;;;;;;3.28;2.78;;;;;;;;;;10319346;28;20559;-60
2023/06/13 21:33:45;;;;;;;3.20;2.90;;;;;;;;;;10319458;28;20075;-59
2023/06/13 21:38:45;;;;;;;4.47;2.95;;;;;;;;;;10319643;28;20071;-60
2023/06/13 21:43:45;;;;;;;4.75;3.38;;;;;;;;;;10318643;28;20072;-60
2023/06/13 21:48:44;;;;;;;4.00;3.08;;;;;;;;;;10317363;28;20072;-61
2023/06/13 21:53:42;;;;;;;5.15;3.65;;;;;;;;;;10317740;28;20068;-60
2023/06/13 21:58:40;;;;;;;7.47;3.67;;;;;;;;;;10317601;28;20071;-59
2023/06/13 22:03:40;;;;;;;5.45;3.42;;;;;;;;;;10317822;28;20118;-60
2023/06/13 22:08:38;;;;;;;3.28;2.97;;;;;;;;;;10315457;28;20486;-58
2023/06/13 22:13:37;;;;;;;6.75;2.97;;;;;;;;;;10314413;28;20064;-59
2023/06/13 22:18:37;;;;;;;3.95;3.15;;;;;;;;;;10314935;28;20107;-60
2023/06/13 22:23:37;;;;;;;5.97;3.47;;;;;;;;;;10316267;28;20057;-59
2023/06/13 22:28:36;;;;;;;4.20;3.30;;;;;;;;;;10317714;28;20080;-60
2023/06/13 22:33:38;;;;;;;4.20;3.70;;;;;;;;;;10316983;28;20068;-60
2023/06/13 22:38:37;;;;;;;8.23;4.32;;;;;;;;;;10317445;28;20082;-60
2023/06/13 22:43:35;;;;;;;4.72;4.32;;;;;;;;;;10317515;28;20048;-60
2023/06/13 22:48:34;;;;;;;5.85;4.25;;;;;;;;;;10316051;28;20068;-61
2023/06/13 22:53:32;;;;;;;6.97;4.25;;;;;;;;;;10316391;28;20119;-60
2023/06/13 22:58:32;;;;;;;4.88;4.47;;;;;;;;;;10314752;28;20072;-60
2023/06/13 23:03:30;;;;;;;6.35;4.28;;;;;;;;;;10316038;28;20083;-61
2023/06/13 23:08:28;;;;;;;4.57;4.18;;;;;;;;;;10315427;28;20540;-59
2023/06/13 23:13:27;;;;;;;5.05;4.55;;;;;;;;;;10316331;28;20076;-60
2023/06/13 23:18:27;;;;;;;5.10;4.57;;;;;;;;;;10313454;28;20079;-60
2023/06/13 23:23:26;;;;;;;6.10;4.38;;;;;;;;;;10313547;28;20493;-60
2023/06/13 23:28:25;;;;;;;4.97;4.57;;;;;;;;;;10314364;28;20079;-59
2023/06/13 23:33:23;;;;;;;6.15;3.85;;;;;;;;;;10315451;28;20517;-59
2023/06/13 23:38:23;;;;;;;5.38;4.60;;;;;;;;;;10314565;28;20079;-56
2023/06/13 23:43:22;;;;;;;6.05;4.47;;;;;;;;;;10311488;28;20430;-60
2023/06/13 23:48:20;;;;;;;5.07;4.68;;;;;;;;;;10310856;28;20662;-60
2023/06/13 23:53:18;;;;;;;6.25;4.90;;;;;;;;;;10314377;28;20068;-59
2023/06/13 23:58:18;;;;;;;4.85;4.45;;;;;;;;;;10314392;28;20135;-60
